sensor_id;sensor_type;location;lat;lon;timestamp;P1;durP1;ratioP1;P2;durP2;ratioP2
85668;SDS011;76101;44.794;10.344;2024-03-02T00:01:00;15.85;;;7.00;;
85668;SDS011;76101;44.794;10.344;2024-03-02T00:04:02;17.23;;;6.82;;
85668;SDS011;76101;44.794;10.344;2024-03-02T00:07:04;17.38;;;7.70;;
85668;SDS011;76101;44.794;10.344;2024-03-02T00:10:05;18.45;;;6.93;;
85668;SDS011;76101;44.794;10.344;2024-03-02T00:13:10;15.45;;;7.00;;
85668;SDS011;76101;44.794;10.344;2024-03-02T00:16:12;14.65;;;7.13;;
85668;SDS011;76101;44.794;10.344;2024-03-02T00:19:13;14.48;;;7.38;;
85668;SDS011;76101;44.794;10.344;2024-03-02T00:22:14;16.63;;;6.95;;
85668;SDS011;76101;44.794;10.344;2024-03-02T00:25:14;17.02;;;6.82;;
85668;SDS011;76101;44.794;10.344;2024-03-02T00:28:24;17.83;;;7.72;;
85668;SDS011;76101;44.794;10.344;2024-03-02T00:31:43;16.85;;;7.28;;
85668;SDS011;76101;44.794;10.344;2024-03-02T00:34:44;17.80;;;7.75;;
85668;SDS011;76101;44.794;10.344;2024-03-02T00:37:44;18.10;;;7.65;;
85668;SDS011;76101;44.794;10.344;2024-03-02T00:40:45;18.40;;;8.00;;
85668;SDS011;76101;44.794;10.344;2024-03-02T00:47:10;18.15;;;7.80;;
85668;SDS011;76101;44.794;10.344;2024-03-02T00:50:12;16.88;;;7.57;;
85668;SDS011;76101;44.794;10.344;2024-03-02T00:53:13;14.27;;;7.70;;
85668;SDS011;76101;44.794;10.344;2024-03-02T00:56:14;14.98;;;6.88;;
85668;SDS011;76101;44.794;10.344;2024-03-02T00:59:15;16.85;;;8.02;;
85668;SDS011;76101;44.794;10.344;2024-03-02T01:02:16;18.35;;;8.32;;
85668;SDS011;76101;44.794;10.344;2024-03-02T01:05:16;18.60;;;8.18;;
85668;SDS011;76101;44.794;10.344;2024-03-02T01:08:16;15.95;;;7.85;;
85668;SDS011;76101;44.794;10.344;2024-03-02T01:11:17;13.43;;;6.85;;
85668;SDS011;76101;44.794;10.344;2024-03-02T01:14:18;17.85;;;7.93;;
85668;SDS011;76101;44.794;10.344;2024-03-02T01:17:18;16.87;;;7.23;;
85668;SDS011;76101;44.794;10.344;2024-03-02T01:20:19;14.63;;;7.07;;
85668;SDS011;76101;44.794;10.344;2024-03-02T01:23:19;14.25;;;7.50;;
85668;SDS011;76101;44.794;10.344;2024-03-02T01:26:19;18.27;;;7.57;;
85668;SDS011;76101;44.794;10.344;2024-03-02T01:29:20;15.95;;;7.30;;
85668;SDS011;76101;44.794;10.344;2024-03-02T01:32:20;19.70;;;7.50;;
85668;SDS011;76101;44.794;10.344;2024-03-02T01:35:21;16.58;;;8.23;;
85668;SDS011;76101;44.794;10.344;2024-03-02T01:38:21;16.85;;;7.65;;
85668;SDS011;76101;44.794;10.344;2024-03-02T01:41:21;15.35;;;7.63;;
85668;SDS011;76101;44.794;10.344;2024-03-02T01:44:22;17.15;;;8.20;;
85668;SDS011;76101;44.794;10.344;2024-03-02T01:47:22;15.33;;;8.23;;
85668;SDS011;76101;44.794;10.344;2024-03-02T01:50:27;18.52;;;8.27;;
85668;SDS011;76101;44.794;10.344;2024-03-02T01:53:28;15.45;;;8.93;;
85668;SDS011;76101;44.794;10.344;2024-03-02T01:56:29;15.13;;;8.45;;
85668;SDS011;76101;44.794;10.344;2024-03-02T01:59:29;15.95;;;9.07;;
85668;SDS011;76101;44.794;10.344;2024-03-02T02:02:30;18.17;;;9.25;;
85668;SDS011;76101;44.794;10.344;2024-03-02T02:05:30;18.75;;;9.30;;
85668;SDS011;76101;44.794;10.344;2024-03-02T02:08:31;20.00;;;10.20;;
85668;SDS011;76101;44.794;10.344;2024-03-02T02:11:32;18.38;;;9.93;;
85668;SDS011;76101;44.794;10.344;2024-03-02T02:14:38;15.32;;;9.30;;
85668;SDS011;76101;44.794;10.344;2024-03-02T02:17:43;20.38;;;9.32;;
85668;SDS011;76101;44.794;10.344;2024-03-02T02:20:43;17.60;;;9.68;;
85668;SDS011;76101;44.794;10.344;2024-03-02T02:23:43;17.25;;;9.45;;
85668;SDS011;76101;44.794;10.344;2024-03-02T02:26:48;20.52;;;9.90;;
85668;SDS011;76101;44.794;10.344;2024-03-02T02:30:06;16.80;;;10.00;;
85668;SDS011;76101;44.794;10.344;2024-03-02T02:33:08;19.25;;;9.65;;
85668;SDS011;76101;44.794;10.344;2024-03-02T02:36:09;17.80;;;10.07;;
85668;SDS011;76101;44.794;10.344;2024-03-02T02:39:11;16.75;;;10.30;;
85668;SDS011;76101;44.794;10.344;2024-03-02T02:42:15;15.95;;;9.10;;
85668;SDS011;76101;44.794;10.344;2024-03-02T02:45:16;18.25;;;10.00;;
85668;SDS011;76101;44.794;10.344;2024-03-02T02:51:39;19.30;;;9.65;;
85668;SDS011;76101;44.794;10.344;2024-03-02T02:54:39;14.98;;;9.35;;
85668;SDS011;76101;44.794;10.344;2024-03-02T02:57:40;18.40;;;10.15;;
85668;SDS011;76101;44.794;10.344;2024-03-02T03:00:42;18.77;;;9.88;;
85668;SDS011;76101;44.794;10.344;2024-03-02T03:03:42;15.20;;;8.82;;
85668;SDS011;76101;44.794;10.344;2024-03-02T03:06:43;16.95;;;9.60;;
85668;SDS011;76101;44.794;10.344;2024-03-02T03:09:43;18.33;;;9.80;;
85668;SDS011;76101;44.794;10.344;2024-03-02T03:12:43;17.73;;;9.85;;
85668;SDS011;76101;44.794;10.344;2024-03-02T03:15:44;18.65;;;9.70;;
85668;SDS011;76101;44.794;10.344;2024-03-02T03:18:44;19.48;;;9.85;;
85668;SDS011;76101;44.794;10.344;2024-03-02T03:21:45;18.40;;;9.25;;
85668;SDS011;76101;44.794;10.344;2024-03-02T03:24:45;17.30;;;9.13;;
85668;SDS011;76101;44.794;10.344;2024-03-02T03:27:46;17.17;;;9.52;;
85668;SDS011;76101;44.794;10.344;2024-03-02T03:30:47;19.85;;;9.85;;
85668;SDS011;76101;44.794;10.344;2024-03-02T03:33:47;15.40;;;8.40;;
85668;SDS011;76101;44.794;10.344;2024-03-02T03:36:47;14.87;;;8.37;;
85668;SDS011;76101;44.794;10.344;2024-03-02T03:39:48;17.33;;;9.32;;
85668;SDS011;76101;44.794;10.344;2024-03-02T03:42:48;16.77;;;8.77;;
85668;SDS011;76101;44.794;10.344;2024-03-02T03:45:50;17.00;;;9.45;;
85668;SDS011;76101;44.794;10.344;2024-03-02T03:48:51;18.13;;;9.38;;
85668;SDS011;76101;44.794;10.344;2024-03-02T03:51:51;15.73;;;8.60;;
85668;SDS011;76101;44.794;10.344;2024-03-02T03:54:52;18.20;;;8.70;;
85668;SDS011;76101;44.794;10.344;2024-03-02T03:57:52;14.85;;;8.63;;
85668;SDS011;76101;44.794;10.344;2024-03-02T04:00:53;15.80;;;8.48;;
85668;SDS011;76101;44.794;10.344;2024-03-02T04:03:53;16.37;;;8.83;;
85668;SDS011;76101;44.794;10.344;2024-03-02T04:07:00;14.18;;;8.18;;
85668;SDS011;76101;44.794;10.344;2024-03-02T04:10:01;15.25;;;7.85;;
85668;SDS011;76101;44.794;10.344;2024-03-02T04:13:01;17.17;;;7.90;;
85668;SDS011;76101;44.794;10.344;2024-03-02T04:16:02;17.88;;;8.45;;
85668;SDS011;76101;44.794;10.344;2024-03-02T04:19:03;14.93;;;8.02;;
85668;SDS011;76101;44.794;10.344;2024-03-02T04:22:04;13.95;;;8.20;;
85668;SDS011;76101;44.794;10.344;2024-03-02T04:25:04;15.80;;;8.52;;
85668;SDS011;76101;44.794;10.344;2024-03-02T04:28:05;15.30;;;7.93;;
85668;SDS011;76101;44.794;10.344;2024-03-02T04:31:05;15.35;;;7.50;;
85668;SDS011;76101;44.794;10.344;2024-03-02T04:34:06;13.60;;;7.85;;
85668;SDS011;76101;44.794;10.344;2024-03-02T04:37:10;13.40;;;7.68;;
85668;SDS011;76101;44.794;10.344;2024-03-02T04:40:18;15.40;;;8.00;;
85668;SDS011;76101;44.794;10.344;2024-03-02T04:43:19;13.18;;;7.32;;
85668;SDS011;76101;44.794;10.344;2024-03-02T04:46:19;13.20;;;7.68;;
85668;SDS011;76101;44.794;10.344;2024-03-02T04:49:20;13.00;;;7.38;;
85668;SDS011;76101;44.794;10.344;2024-03-02T04:52:20;14.53;;;7.43;;
85668;SDS011;76101;44.794;10.344;2024-03-02T04:55:20;13.63;;;7.20;;
85668;SDS011;76101;44.794;10.344;2024-03-02T04:58:39;14.30;;;7.70;;
85668;SDS011;76101;44.794;10.344;2024-03-02T05:01:39;14.07;;;7.05;;
85668;SDS011;76101;44.794;10.344;2024-03-02T05:04:40;13.48;;;6.80;;
85668;SDS011;76101;44.794;10.344;2024-03-02T05:07:40;12.50;;;7.28;;
85668;SDS011;76101;44.794;10.344;2024-03-02T05:10:42;13.35;;;7.60;;
85668;SDS011;76101;44.794;10.344;2024-03-02T05:13:42;13.32;;;7.30;;
85668;SDS011;76101;44.794;10.344;2024-03-02T05:16:43;14.45;;;7.55;;
85668;SDS011;76101;44.794;10.344;2024-03-02T05:19:43;12.88;;;7.18;;
85668;SDS011;76101;44.794;10.344;2024-03-02T05:22:44;13.20;;;7.30;;
85668;SDS011;76101;44.794;10.344;2024-03-02T05:25:44;16.40;;;7.88;;
85668;SDS011;76101;44.794;10.344;2024-03-02T05:28:45;13.85;;;7.00;;
85668;SDS011;76101;44.794;10.344;2024-03-02T05:31:45;12.30;;;7.10;;
85668;SDS011;76101;44.794;10.344;2024-03-02T05:34:46;13.25;;;7.43;;
85668;SDS011;76101;44.794;10.344;2024-03-02T05:37:46;15.40;;;8.20;;
85668;SDS011;76101;44.794;10.344;2024-03-02T05:40:47;16.27;;;7.38;;
85668;SDS011;76101;44.794;10.344;2024-03-02T05:43:47;13.30;;;7.95;;
85668;SDS011;76101;44.794;10.344;2024-03-02T05:46:47;12.23;;;7.47;;
85668;SDS011;76101;44.794;10.344;2024-03-02T05:49:48;12.80;;;7.00;;
85668;SDS011;76101;44.794;10.344;2024-03-02T05:52:48;11.18;;;6.85;;
85668;SDS011;76101;44.794;10.344;2024-03-02T05:55:49;14.80;;;7.60;;
85668;SDS011;76101;44.794;10.344;2024-03-02T05:58:55;12.48;;;7.60;;
85668;SDS011;76101;44.794;10.344;2024-03-02T06:05:09;11.57;;;7.00;;
85668;SDS011;76101;44.794;10.344;2024-03-02T06:08:09;12.25;;;6.75;;
85668;SDS011;76101;44.794;10.344;2024-03-02T06:11:10;14.23;;;6.97;;
85668;SDS011;76101;44.794;10.344;2024-03-02T06:14:19;11.43;;;6.65;;
85668;SDS011;76101;44.794;10.344;2024-03-02T06:17:19;12.02;;;6.88;;
85668;SDS011;76101;44.794;10.344;2024-03-02T06:20:20;12.45;;;6.45;;
85668;SDS011;76101;44.794;10.344;2024-03-02T06:23:27;13.07;;;6.93;;
85668;SDS011;76101;44.794;10.344;2024-03-02T06:26:31;12.20;;;6.70;;
85668;SDS011;76101;44.794;10.344;2024-03-02T06:29:34;11.40;;;6.53;;
85668;SDS011;76101;44.794;10.344;2024-03-02T06:32:35;11.82;;;6.60;;
85668;SDS011;76101;44.794;10.344;2024-03-02T06:35:35;9.95;;;5.95;;
85668;SDS011;76101;44.794;10.344;2024-03-02T06:38:42;11.88;;;6.65;;
85668;SDS011;76101;44.794;10.344;2024-03-02T06:41:45;11.90;;;6.20;;
85668;SDS011;76101;44.794;10.344;2024-03-02T06:44:47;10.55;;;5.97;;
85668;SDS011;76101;44.794;10.344;2024-03-02T06:47:47;13.38;;;5.85;;
85668;SDS011;76101;44.794;10.344;2024-03-02T06:50:51;11.82;;;6.22;;
85668;SDS011;76101;44.794;10.344;2024-03-02T06:53:52;12.38;;;6.45;;
85668;SDS011;76101;44.794;10.344;2024-03-02T06:56:52;13.88;;;6.70;;
85668;SDS011;76101;44.794;10.344;2024-03-02T06:59:52;10.83;;;6.37;;
85668;SDS011;76101;44.794;10.344;2024-03-02T07:02:57;11.10;;;6.68;;
85668;SDS011;76101;44.794;10.344;2024-03-02T07:05:58;13.45;;;6.45;;
85668;SDS011;76101;44.794;10.344;2024-03-02T07:08:58;10.88;;;6.10;;
85668;SDS011;76101;44.794;10.344;2024-03-02T07:11:59;10.70;;;6.20;;
85668;SDS011;76101;44.794;10.344;2024-03-02T07:14:59;11.45;;;5.85;;
85668;SDS011;76101;44.794;10.344;2024-03-02T07:18:03;12.13;;;6.28;;
85668;SDS011;76101;44.794;10.344;2024-03-02T07:21:04;12.10;;;6.32;;
85668;SDS011;76101;44.794;10.344;2024-03-02T07:24:04;12.00;;;6.20;;
85668;SDS011;76101;44.794;10.344;2024-03-02T07:27:06;12.40;;;7.05;;
85668;SDS011;76101;44.794;10.344;2024-03-02T07:30:07;12.43;;;6.47;;
85668;SDS011;76101;44.794;10.344;2024-03-02T07:33:08;13.32;;;6.75;;
85668;SDS011;76101;44.794;10.344;2024-03-02T07:36:08;11.25;;;6.00;;
85668;SDS011;76101;44.794;10.344;2024-03-02T07:39:08;11.70;;;5.80;;
85668;SDS011;76101;44.794;10.344;2024-03-02T07:42:12;10.90;;;5.78;;
85668;SDS011;76101;44.794;10.344;2024-03-02T07:45:13;14.25;;;5.95;;
85668;SDS011;76101;44.794;10.344;2024-03-02T07:48:17;10.75;;;6.38;;
85668;SDS011;76101;44.794;10.344;2024-03-02T07:51:18;11.77;;;5.82;;
85668;SDS011;76101;44.794;10.344;2024-03-02T07:54:24;13.73;;;7.32;;
85668;SDS011;76101;44.794;10.344;2024-03-02T07:57:24;11.20;;;6.00;;
85668;SDS011;76101;44.794;10.344;2024-03-02T08:00:41;10.30;;;5.90;;
85668;SDS011;76101;44.794;10.344;2024-03-02T08:03:42;10.20;;;6.00;;
85668;SDS011;76101;44.794;10.344;2024-03-02T08:06:48;11.18;;;6.00;;
85668;SDS011;76101;44.794;10.344;2024-03-02T08:09:48;11.77;;;6.53;;
85668;SDS011;76101;44.794;10.344;2024-03-02T08:12:48;11.13;;;6.07;;
85668;SDS011;76101;44.794;10.344;2024-03-02T08:15:49;11.95;;;6.20;;
85668;SDS011;76101;44.794;10.344;2024-03-02T08:18:50;11.93;;;6.75;;
85668;SDS011;76101;44.794;10.344;2024-03-02T08:21:53;11.57;;;6.03;;
85668;SDS011;76101;44.794;10.344;2024-03-02T08:24:54;11.60;;;6.10;;
85668;SDS011;76101;44.794;10.344;2024-03-02T08:28:00;11.73;;;6.30;;
85668;SDS011;76101;44.794;10.344;2024-03-02T08:31:09;11.02;;;5.93;;
85668;SDS011;76101;44.794;10.344;2024-03-02T08:34:13;10.85;;;6.25;;
85668;SDS011;76101;44.794;10.344;2024-03-02T08:37:13;10.75;;;6.00;;
85668;SDS011;76101;44.794;10.344;2024-03-02T08:40:14;10.88;;;6.53;;
85668;SDS011;76101;44.794;10.344;2024-03-02T08:43:15;11.05;;;6.10;;
85668;SDS011;76101;44.794;10.344;2024-03-02T08:46:15;11.07;;;6.30;;
85668;SDS011;76101;44.794;10.344;2024-03-02T08:49:21;10.63;;;6.50;;
85668;SDS011;76101;44.794;10.344;2024-03-02T09:00:26;9.77;;;5.80;;
85668;SDS011;76101;44.794;10.344;2024-03-02T09:03:27;10.15;;;5.53;;
85668;SDS011;76101;44.794;10.344;2024-03-02T09:06:27;10.10;;;5.72;;
85668;SDS011;76101;44.794;10.344;2024-03-02T09:09:28;9.75;;;5.50;;
85668;SDS011;76101;44.794;10.344;2024-03-02T09:16:38;10.75;;;5.78;;
85668;SDS011;76101;44.794;10.344;2024-03-02T09:19:39;9.70;;;5.68;;
85668;SDS011;76101;44.794;10.344;2024-03-02T09:22:42;9.73;;;5.15;;
85668;SDS011;76101;44.794;10.344;2024-03-02T09:25:42;11.75;;;6.03;;
85668;SDS011;76101;44.794;10.344;2024-03-02T09:28:50;10.75;;;5.95;;
85668;SDS011;76101;44.794;10.344;2024-03-02T09:31:51;9.98;;;6.03;;
85668;SDS011;76101;44.794;10.344;2024-03-02T09:34:51;11.30;;;5.60;;
85668;SDS011;76101;44.794;10.344;2024-03-02T09:37:53;11.13;;;5.95;;
85668;SDS011;76101;44.794;10.344;2024-03-02T09:40:53;9.82;;;5.80;;
85668;SDS011;76101;44.794;10.344;2024-03-02T09:43:54;10.20;;;5.83;;
85668;SDS011;76101;44.794;10.344;2024-03-02T09:46:55;12.68;;;6.32;;
85668;SDS011;76101;44.794;10.344;2024-03-02T09:49:56;10.75;;;6.20;;
85668;SDS011;76101;44.794;10.344;2024-03-02T09:52:56;11.80;;;6.45;;
85668;SDS011;76101;44.794;10.344;2024-03-02T09:55:58;10.30;;;6.03;;
85668;SDS011;76101;44.794;10.344;2024-03-02T09:59:02;11.65;;;6.72;;
85668;SDS011;76101;44.794;10.344;2024-03-02T10:02:02;10.60;;;6.40;;
85668;SDS011;76101;44.794;10.344;2024-03-02T10:05:04;11.75;;;6.20;;
85668;SDS011;76101;44.794;10.344;2024-03-02T10:08:07;10.25;;;6.00;;
85668;SDS011;76101;44.794;10.344;2024-03-02T10:11:12;10.02;;;6.00;;
85668;SDS011;76101;44.794;10.344;2024-03-02T10:14:27;10.95;;;6.22;;
85668;SDS011;76101;44.794;10.344;2024-03-02T10:31:26;12.43;;;6.35;;
85668;SDS011;76101;44.794;10.344;2024-03-02T10:37:28;10.10;;;4.90;;
85668;SDS011;76101;44.794;10.344;2024-03-02T10:40:29;9.77;;;5.05;;
85668;SDS011;76101;44.794;10.344;2024-03-02T10:43:30;9.77;;;4.95;;
85668;SDS011;76101;44.794;10.344;2024-03-02T10:46:34;8.98;;;4.18;;
85668;SDS011;76101;44.794;10.344;2024-03-02T10:49:36;8.93;;;4.80;;
85668;SDS011;76101;44.794;10.344;2024-03-02T10:52:38;8.38;;;4.88;;
85668;SDS011;76101;44.794;10.344;2024-03-02T10:55:45;8.90;;;4.78;;
85668;SDS011;76101;44.794;10.344;2024-03-02T10:59:01;7.88;;;3.80;;
85668;SDS011;76101;44.794;10.344;2024-03-02T11:02:05;6.60;;;3.10;;
85668;SDS011;76101;44.794;10.344;2024-03-02T11:05:08;6.68;;;3.28;;
85668;SDS011;76101;44.794;10.344;2024-03-02T11:15:36;7.70;;;3.90;;
85668;SDS011;76101;44.794;10.344;2024-03-02T11:18:37;8.75;;;4.05;;
85668;SDS011;76101;44.794;10.344;2024-03-02T11:24:49;8.45;;;4.32;;
85668;SDS011;76101;44.794;10.344;2024-03-02T11:35:57;9.30;;;4.60;;
85668;SDS011;76101;44.794;10.344;2024-03-02T11:38:57;10.30;;;4.80;;
85668;SDS011;76101;44.794;10.344;2024-03-02T11:41:58;8.90;;;4.55;;
85668;SDS011;76101;44.794;10.344;2024-03-02T11:44:59;9.05;;;4.80;;
85668;SDS011;76101;44.794;10.344;2024-03-02T11:48:00;9.32;;;5.18;;
85668;SDS011;76101;44.794;10.344;2024-03-02T11:51:00;10.63;;;4.80;;
85668;SDS011;76101;44.794;10.344;2024-03-02T11:54:01;12.07;;;5.18;;
85668;SDS011;76101;44.794;10.344;2024-03-02T11:57:04;11.65;;;5.25;;
85668;SDS011;76101;44.794;10.344;2024-03-02T12:00:05;11.80;;;4.43;;
85668;SDS011;76101;44.794;10.344;2024-03-02T12:03:17;8.43;;;4.60;;
85668;SDS011;76101;44.794;10.344;2024-03-02T12:14:11;11.35;;;4.85;;
85668;SDS011;76101;44.794;10.344;2024-03-02T12:18:03;8.43;;;4.63;;
85668;SDS011;76101;44.794;10.344;2024-03-02T12:21:07;8.43;;;4.82;;
85668;SDS011;76101;44.794;10.344;2024-03-02T12:24:11;8.75;;;5.03;;
85668;SDS011;76101;44.794;10.344;2024-03-02T12:27:14;10.32;;;4.72;;
85668;SDS011;76101;44.794;10.344;2024-03-02T12:30:18;9.18;;;4.40;;
85668;SDS011;76101;44.794;10.344;2024-03-02T12:33:19;10.13;;;4.57;;
85668;SDS011;76101;44.794;10.344;2024-03-02T12:40:05;10.40;;;4.68;;
85668;SDS011;76101;44.794;10.344;2024-03-02T12:43:13;11.95;;;4.78;;
85668;SDS011;76101;44.794;10.344;2024-03-02T12:49:39;10.73;;;5.10;;
85668;SDS011;76101;44.794;10.344;2024-03-02T12:52:40;9.10;;;4.60;;
85668;SDS011;76101;44.794;10.344;2024-03-02T12:55:41;8.85;;;5.30;;
85668;SDS011;76101;44.794;10.344;2024-03-02T12:58:41;8.65;;;4.72;;
85668;SDS011;76101;44.794;10.344;2024-03-02T13:01:57;9.02;;;5.28;;
85668;SDS011;76101;44.794;10.344;2024-03-02T13:08:29;8.23;;;4.80;;
85668;SDS011;76101;44.794;10.344;2024-03-02T13:11:30;8.40;;;5.13;;
85668;SDS011;76101;44.794;10.344;2024-03-02T13:14:35;10.80;;;5.15;;
85668;SDS011;76101;44.794;10.344;2024-03-02T13:17:35;9.80;;;5.80;;
85668;SDS011;76101;44.794;10.344;2024-03-02T13:20:36;9.05;;;5.22;;
85668;SDS011;76101;44.794;10.344;2024-03-02T13:23:39;8.68;;;5.05;;
85668;SDS011;76101;44.794;10.344;2024-03-02T13:26:39;8.23;;;5.10;;
85668;SDS011;76101;44.794;10.344;2024-03-02T13:29:40;9.27;;;5.22;;
85668;SDS011;76101;44.794;10.344;2024-03-02T13:32:41;8.45;;;4.95;;
85668;SDS011;76101;44.794;10.344;2024-03-02T13:35:41;8.77;;;4.85;;
85668;SDS011;76101;44.794;10.344;2024-03-02T13:38:47;9.47;;;4.40;;
85668;SDS011;76101;44.794;10.344;2024-03-02T13:41:54;9.02;;;4.40;;
85668;SDS011;76101;44.794;10.344;2024-03-02T14:08:49;7.35;;;3.88;;
85668;SDS011;76101;44.794;10.344;2024-03-02T14:11:50;7.82;;;4.18;;
85668;SDS011;76101;44.794;10.344;2024-03-02T14:18:50;8.20;;;4.07;;
85668;SDS011;76101;44.794;10.344;2024-03-02T14:21:50;10.25;;;4.40;;
85668;SDS011;76101;44.794;10.344;2024-03-02T14:24:51;7.55;;;4.00;;
85668;SDS011;76101;44.794;10.344;2024-03-02T14:31:29;7.70;;;3.90;;
85668;SDS011;76101;44.794;10.344;2024-03-02T14:34:31;7.65;;;4.18;;
85668;SDS011;76101;44.794;10.344;2024-03-02T14:41:12;6.78;;;3.97;;
85668;SDS011;76101;44.794;10.344;2024-03-02T14:44:13;7.35;;;4.88;;
85668;SDS011;76101;44.794;10.344;2024-03-02T14:51:00;7.07;;;3.70;;
85668;SDS011;76101;44.794;10.344;2024-03-02T14:58:00;7.32;;;4.15;;
85668;SDS011;76101;44.794;10.344;2024-03-02T15:01:00;6.82;;;3.60;;
85668;SDS011;76101;44.794;10.344;2024-03-02T15:04:01;6.40;;;4.10;;
85668;SDS011;76101;44.794;10.344;2024-03-02T15:07:01;7.18;;;4.10;;
85668;SDS011;76101;44.794;10.344;2024-03-02T15:52:51;7.38;;;4.10;;
85668;SDS011;76101;44.794;10.344;2024-03-02T16:02:24;10.43;;;4.30;;
85668;SDS011;76101;44.794;10.344;2024-03-02T16:05:24;7.43;;;3.92;;
85668;SDS011;76101;44.794;10.344;2024-03-02T16:08:31;11.70;;;4.43;;
85668;SDS011;76101;44.794;10.344;2024-03-02T16:11:37;8.85;;;3.83;;
85668;SDS011;76101;44.794;10.344;2024-03-02T16:14:38;10.32;;;4.40;;
85668;SDS011;76101;44.794;10.344;2024-03-02T16:17:38;10.35;;;4.35;;
85668;SDS011;76101;44.794;10.344;2024-03-02T16:20:39;11.57;;;3.80;;
85668;SDS011;76101;44.794;10.344;2024-03-02T16:34:40;8.95;;;3.95;;
85668;SDS011;76101;44.794;10.344;2024-03-02T16:37:41;6.63;;;3.72;;
85668;SDS011;76101;44.794;10.344;2024-03-02T16:40:42;7.78;;;3.50;;
85668;SDS011;76101;44.794;10.344;2024-03-02T16:43:45;8.13;;;3.65;;
85668;SDS011;76101;44.794;10.344;2024-03-02T16:46:45;7.22;;;3.97;;
85668;SDS011;76101;44.794;10.344;2024-03-02T16:49:47;8.75;;;3.65;;
85668;SDS011;76101;44.794;10.344;2024-03-02T16:52:47;7.32;;;3.97;;
85668;SDS011;76101;44.794;10.344;2024-03-02T16:55:48;7.35;;;3.83;;
85668;SDS011;76101;44.794;10.344;2024-03-02T16:58:48;7.32;;;4.07;;
85668;SDS011;76101;44.794;10.344;2024-03-02T17:01:49;8.98;;;3.90;;
85668;SDS011;76101;44.794;10.344;2024-03-02T17:04:49;7.78;;;3.65;;
85668;SDS011;76101;44.794;10.344;2024-03-02T17:07:49;9.90;;;4.18;;
85668;SDS011;76101;44.794;10.344;2024-03-02T17:10:50;9.45;;;4.70;;
85668;SDS011;76101;44.794;10.344;2024-03-02T17:13:52;9.27;;;4.50;;
85668;SDS011;76101;44.794;10.344;2024-03-02T17:16:57;7.35;;;4.05;;
85668;SDS011;76101;44.794;10.344;2024-03-02T17:20:07;6.78;;;3.83;;
85668;SDS011;76101;44.794;10.344;2024-03-02T17:23:09;11.52;;;4.50;;
85668;SDS011;76101;44.794;10.344;2024-03-02T17:26:09;9.35;;;4.97;;
85668;SDS011;76101;44.794;10.344;2024-03-02T17:29:13;8.82;;;4.40;;
85668;SDS011;76101;44.794;10.344;2024-03-02T17:32:13;7.40;;;4.40;;
85668;SDS011;76101;44.794;10.344;2024-03-02T17:35:14;10.55;;;4.47;;
85668;SDS011;76101;44.794;10.344;2024-03-02T17:38:14;7.60;;;4.10;;
85668;SDS011;76101;44.794;10.344;2024-03-02T17:41:24;10.52;;;4.65;;
85668;SDS011;76101;44.794;10.344;2024-03-02T17:48:02;8.90;;;4.63;;
85668;SDS011;76101;44.794;10.344;2024-03-02T17:51:06;10.15;;;4.90;;
85668;SDS011;76101;44.794;10.344;2024-03-02T17:54:08;11.10;;;5.50;;
85668;SDS011;76101;44.794;10.344;2024-03-02T17:57:08;9.65;;;5.13;;
85668;SDS011;76101;44.794;10.344;2024-03-02T18:00:09;8.75;;;4.82;;
85668;SDS011;76101;44.794;10.344;2024-03-02T18:07:02;9.07;;;4.80;;
85668;SDS011;76101;44.794;10.344;2024-03-02T18:17:40;12.65;;;5.68;;
85668;SDS011;76101;44.794;10.344;2024-03-02T18:20:41;11.38;;;5.72;;
85668;SDS011;76101;44.794;10.344;2024-03-02T18:23:41;8.40;;;5.03;;
85668;SDS011;76101;44.794;10.344;2024-03-02T18:26:42;8.68;;;5.20;;
85668;SDS011;76101;44.794;10.344;2024-03-02T18:29:42;11.77;;;5.25;;
85668;SDS011;76101;44.794;10.344;2024-03-02T18:32:43;8.15;;;5.20;;
85668;SDS011;76101;44.794;10.344;2024-03-02T18:35:43;12.25;;;5.78;;
85668;SDS011;76101;44.794;10.344;2024-03-02T18:38:44;7.38;;;4.68;;
85668;SDS011;76101;44.794;10.344;2024-03-02T18:41:44;9.38;;;5.93;;
85668;SDS011;76101;44.794;10.344;2024-03-02T18:44:45;11.38;;;6.18;;
85668;SDS011;76101;44.794;10.344;2024-03-02T18:47:46;12.77;;;5.75;;
85668;SDS011;76101;44.794;10.344;2024-03-02T18:50:46;9.98;;;6.00;;
85668;SDS011;76101;44.794;10.344;2024-03-02T18:53:52;10.45;;;6.20;;
85668;SDS011;76101;44.794;10.344;2024-03-02T18:56:56;9.07;;;5.90;;
85668;SDS011;76101;44.794;10.344;2024-03-02T18:59:56;12.93;;;6.22;;
85668;SDS011;76101;44.794;10.344;2024-03-02T19:06:36;10.40;;;5.45;;
85668;SDS011;76101;44.794;10.344;2024-03-02T19:09:54;12.15;;;5.57;;
85668;SDS011;76101;44.794;10.344;2024-03-02T19:12:55;10.48;;;6.32;;
85668;SDS011;76101;44.794;10.344;2024-03-02T19:15:55;11.20;;;5.50;;
85668;SDS011;76101;44.794;10.344;2024-03-02T19:18:56;10.85;;;5.72;;
85668;SDS011;76101;44.794;10.344;2024-03-02T19:22:08;8.77;;;5.50;;
85668;SDS011;76101;44.794;10.344;2024-03-02T19:25:09;9.20;;;5.57;;
85668;SDS011;76101;44.794;10.344;2024-03-02T19:28:11;11.68;;;5.55;;
85668;SDS011;76101;44.794;10.344;2024-03-02T19:31:17;9.57;;;5.85;;
85668;SDS011;76101;44.794;10.344;2024-03-02T19:34:18;10.15;;;5.82;;
85668;SDS011;76101;44.794;10.344;2024-03-02T19:37:22;12.25;;;6.10;;
85668;SDS011;76101;44.794;10.344;2024-03-02T19:40:23;11.50;;;6.30;;
85668;SDS011;76101;44.794;10.344;2024-03-02T19:43:26;11.45;;;6.43;;
85668;SDS011;76101;44.794;10.344;2024-03-02T19:46:27;9.07;;;6.00;;
85668;SDS011;76101;44.794;10.344;2024-03-02T19:49:27;10.00;;;6.07;;
85668;SDS011;76101;44.794;10.344;2024-03-02T19:52:27;11.23;;;6.30;;
85668;SDS011;76101;44.794;10.344;2024-03-02T20:03:00;10.85;;;6.38;;
85668;SDS011;76101;44.794;10.344;2024-03-02T20:13:37;12.40;;;6.07;;
85668;SDS011;76101;44.794;10.344;2024-03-02T20:16:41;10.40;;;6.00;;
85668;SDS011;76101;44.794;10.344;2024-03-02T20:19:43;11.18;;;6.45;;
85668;SDS011;76101;44.794;10.344;2024-03-02T20:22:45;10.18;;;6.15;;
85668;SDS011;76101;44.794;10.344;2024-03-02T20:25:45;10.95;;;6.97;;
85668;SDS011;76101;44.794;10.344;2024-03-02T20:28:46;15.07;;;6.78;;
85668;SDS011;76101;44.794;10.344;2024-03-02T20:31:47;13.00;;;7.18;;
85668;SDS011;76101;44.794;10.344;2024-03-02T20:34:47;11.45;;;6.78;;
85668;SDS011;76101;44.794;10.344;2024-03-02T20:37:50;10.20;;;6.50;;
85668;SDS011;76101;44.794;10.344;2024-03-02T20:40:59;10.27;;;6.43;;
85668;SDS011;76101;44.794;10.344;2024-03-02T20:43:59;11.17;;;6.70;;
85668;SDS011;76101;44.794;10.344;2024-03-02T20:47:13;10.80;;;6.93;;
85668;SDS011;76101;44.794;10.344;2024-03-02T20:50:22;12.30;;;7.50;;
85668;SDS011;76101;44.794;10.344;2024-03-02T20:53:26;10.88;;;7.03;;
85668;SDS011;76101;44.794;10.344;2024-03-02T21:00:24;14.38;;;7.18;;
85668;SDS011;76101;44.794;10.344;2024-03-02T21:07:22;10.98;;;7.60;;
85668;SDS011;76101;44.794;10.344;2024-03-02T21:14:21;12.27;;;7.25;;
85668;SDS011;76101;44.794;10.344;2024-03-02T21:17:22;11.98;;;7.50;;
85668;SDS011;76101;44.794;10.344;2024-03-02T21:20:22;11.50;;;7.25;;
85668;SDS011;76101;44.794;10.344;2024-03-02T21:23:23;10.02;;;6.70;;
85668;SDS011;76101;44.794;10.344;2024-03-02T21:29:46;11.75;;;7.15;;
85668;SDS011;76101;44.794;10.344;2024-03-02T21:32:46;10.27;;;7.20;;
85668;SDS011;76101;44.794;10.344;2024-03-02T21:35:48;10.63;;;6.70;;
85668;SDS011;76101;44.794;10.344;2024-03-02T21:42:38;12.70;;;7.13;;